Time;durP1;ratioP1;P1;durP2;ratioP2;P2;SDS_P1;SDS_P2;PMS_P1;PMS_P2;Temp;Humidity;BMP_temperature;BMP_pressure;BME280_temperature;BME280_humidity;BME280_pressure;Samples;Min_cycle;Max_cycle;Signal;HPM_P1;HPM_P2
2023/01/17 00:01:50;;;;;;;0.60;0.40;;;;;;;5.95;77.78;97202.31;10381512;28;20343;-64
2023/01/17 00:12:11;;;;;;;0.88;0.50;;;;;;;5.99;77.90;97224.81;10379011;28;20145;-66
2023/01/17 00:17:13;;;;;;;3.60;0.70;;;;;;;6.05;78.32;97245.25;10378005;28;20057;-66
2023/01/17 01:36:24;;;;;;;4.13;0.57;;;;;;;6.05;76.81;97364.44;10387912;28;20136;-65
2023/01/17 01:41:26;;;;;;;1.10;0.50;;;;;;;6.09;75.72;97369.09;10387133;28;20803;-67
2023/01/17 01:46:30;;;;;;;4.68;0.63;;;;;;;6.07;75.66;97376.50;10381269;28;20053;-65
2023/01/17 01:51:37;;;;;;;1.05;0.73;;;;;;;6.02;75.93;97375.50;10384606;28;20045;-67
2023/01/17 01:56:40;;;;;;;1.93;0.80;;;;;;;5.99;75.69;97379.44;10383963;28;20310;-68
2023/01/17 02:01:41;;;;;;;3.50;0.50;;;;;;;6.01;74.98;97387.22;10395112;28;20413;-63
2023/01/17 02:06:59;;;;;;;1.60;0.50;;;;;;;5.97;75.74;97400.19;10433590;28;20102;-64
2023/01/17 02:12:01;;;;;;;1.27;0.50;;;;;;;5.88;75.19;97402.25;10432351;28;20041;-64
2023/01/17 02:17:14;;;;;;;1.85;0.50;;;;;;;5.87;75.54;97410.50;10434711;28;20034;-63
2023/01/17 02:22:30;;;;;;;3.60;0.57;;;;;;;5.81;75.52;97414.03;10435620;28;20041;-65
2023/01/17 02:27:34;;;;;;;3.72;0.60;;;;;;;5.71;74.95;97426.00;10437944;28;20034;-64
2023/01/17 02:32:49;;;;;;;1.85;0.57;;;;;;;5.61;75.76;97423.00;10434839;28;20037;-65
2023/01/17 02:38:03;;;;;;;2.35;0.60;;;;;;;5.56;74.57;97422.84;10431494;28;20030;-63
2023/01/17 02:43:12;;;;;;;0.47;0.30;;;;;;;5.42;75.31;97427.44;10437256;28;20065;-65
2023/01/17 02:48:17;;;;;;;2.92;0.77;;;;;;;5.31;75.04;97426.28;10435065;28;20057;-64
2023/01/17 02:53:29;;;;;;;4.10;0.38;;;;;;;5.30;74.95;97439.81;10434795;28;20064;-63
2023/01/17 02:58:52;;;;;;;3.15;0.60;;;;;;;5.24;74.73;97433.50;10436173;28;20034;-63
2023/01/17 03:04:16;;;;;;;0.93;0.30;;;;;;;5.21;74.50;97446.41;10440677;28;20029;-64
2023/01/17 03:09:19;;;;;;;1.40;0.40;;;;;;;5.17;74.85;97451.34;10431707;28;20044;-64
2023/01/17 03:14:20;;;;;;;1.88;0.40;;;;;;;5.16;74.41;97463.84;10427591;28;20046;-62
2023/01/17 03:19:21;;;;;;;1.95;0.35;;;;;;;5.14;74.81;97473.09;10432253;28;20053;-61
2023/01/17 03:24:23;;;;;;;1.25;0.40;;;;;;;5.17;74.62;97483.28;10429781;28;20049;-63
2023/01/17 03:29:24;;;;;;;2.17;0.30;;;;;;;5.10;74.29;97493.19;10429860;28;20053;-63
2023/01/17 03:34:25;;;;;;;2.28;0.40;;;;;;;5.13;74.65;97487.41;10432225;28;20042;-63
2023/01/17 03:39:27;;;;;;;3.80;0.50;;;;;;;5.18;74.28;97495.59;10430069;28;20049;-63
2023/01/17 03:44:28;;;;;;;2.03;0.40;;;;;;;5.20;73.97;97488.22;10433713;28;20504;-62
2023/01/17 03:49:30;;;;;;;5.05;0.40;;;;;;;5.19;73.93;97502.53;10430196;28;20433;-66
2023/01/17 03:54:31;;;;;;;1.05;0.40;;;;;;;5.16;73.59;97503.78;10428085;28;20084;-63
2023/01/17 03:59:33;;;;;;;0.80;0.20;;;;;;;5.12;74.05;97499.09;10426865;28;20049;-61
2023/01/17 04:04:34;;;;;;;1.17;0.30;;;;;;;5.14;73.88;97505.03;10430590;28;20083;-63
2023/01/17 04:09:35;;;;;;;1.20;0.35;;;;;;;5.12;73.92;97507.09;10429775;28;20030;-63
2023/01/17 04:14:37;;;;;;;2.13;0.65;;;;;;;5.05;73.39;97514.28;10433545;28;20061;-63
2023/01/17 04:19:39;;;;;;;5.47;0.50;;;;;;;4.98;73.78;97516.97;10430217;28;20049;-63
2023/01/17 04:24:41;;;;;;;1.00;0.40;;;;;;;4.96;73.75;97516.38;10432498;28;20025;-64
2023/01/17 04:29:42;;;;;;;1.85;0.40;;;;;;;4.92;73.63;97523.97;10428821;28;20080;-63
2023/01/17 04:34:46;;;;;;;0.90;0.35;;;;;;;4.92;73.19;97526.63;10426922;28;20042;-63
2023/01/17 04:39:48;;;;;;;1.83;0.52;;;;;;;4.89;73.67;97528.88;10424180;28;20030;-62
2023/01/17 04:44:49;;;;;;;3.88;0.60;;;;;;;4.88;73.61;97530.72;10430238;28;20034;-64
2023/01/17 04:49:51;;;;;;;1.77;0.82;;;;;;;4.79;73.97;97539.16;10433477;28;20038;-62
2023/01/17 04:54:52;;;;;;;3.33;0.40;;;;;;;4.76;73.55;97561.69;10428295;28;20037;-64
2023/01/17 04:59:53;;;;;;;4.72;0.50;;;;;;;4.76;73.43;97567.00;10431120;28;20105;-62
2023/01/17 05:04:55;;;;;;;4.30;0.57;;;;;;;4.69;73.58;97567.00;10433707;28;20045;-63
2023/01/17 05:09:58;;;;;;;1.13;0.70;;;;;;;4.68;73.59;97567.19;10427981;28;20065;-62
2023/01/17 05:14:59;;;;;;;1.20;0.43;;;;;;;4.66;73.70;97575.41;10434988;28;20060;-64
2023/01/17 05:20:01;;;;;;;2.75;0.73;;;;;;;4.60;73.81;97578.91;10441554;28;20261;-62
2023/01/17 05:25:02;;;;;;;4.88;0.70;;;;;;;4.49;74.29;97590.16;10438931;28;20084;-64
2023/01/17 05:30:04;;;;;;;2.75;1.08;;;;;;;4.47;74.08;97595.66;10432694;28;20050;-63
2023/01/17 05:35:06;;;;;;;7.18;2.40;;;;;;;4.45;73.85;97599.56;10444653;28;20065;-65
2023/01/17 05:40:08;;;;;;;2.95;1.40;;;;;;;4.45;73.95;97605.69;10437198;28;20037;-63
2023/01/17 05:45:11;;;;;;;4.05;1.20;;;;;;;4.43;74.24;97610.41;10441032;28;20049;-62
2023/01/17 05:50:18;;;;;;;3.67;1.30;;;;;;;4.39;74.52;97614.50;10435932;28;20042;-64
2023/01/17 05:55:20;;;;;;;5.18;1.48;;;;;;;4.29;74.77;97598.13;10436319;28;20101;-62
2023/01/17 06:00:23;;;;;;;4.85;1.23;;;;;;;4.28;74.69;97601.78;10440408;28;20052;-63
2023/01/17 06:05:25;;;;;;;3.60;1.15;;;;;;;4.27;74.57;97600.19;10442124;28;20052;-67
2023/01/17 06:10:28;;;;;;;3.47;1.23;;;;;;;4.24;74.91;97619.19;10436858;28;20053;-65
2023/01/17 06:15:29;;;;;;;5.45;1.52;;;;;;;4.23;74.67;97615.72;10437678;28;20038;-65
2023/01/17 06:20:32;;;;;;;5.85;1.83;;;;;;;4.25;74.39;97632.28;10424732;28;20045;-64
2023/01/17 06:25:38;;;;;;;7.95;3.28;;;;;;;4.28;74.04;97636.38;10442557;28;20053;-65
2023/01/17 06:30:40;;;;;;;11.65;4.80;;;;;;;4.17;74.16;97632.47;10436599;28;20026;-64
2023/01/17 06:35:52;;;;;;;6.75;1.90;;;;;;;4.09;74.68;97632.66;10432009;28;20033;-64
2023/01/17 06:40:53;;;;;;;6.80;1.60;;;;;;;4.04;74.66;97638.56;10432193;28;20078;-63
2023/01/17 06:45:55;;;;;;;4.28;1.52;;;;;;;3.98;74.94;97642.03;10434029;28;20045;-62
2023/01/17 06:50:57;;;;;;;3.17;1.20;;;;;;;3.99;74.99;97643.69;10438347;28;20038;-63
2023/01/17 06:55:58;;;;;;;4.10;1.90;;;;;;;3.97;74.76;97643.06;10418472;28;20123;-65
2023/01/17 07:01:11;;;;;;;5.50;2.22;;;;;;;4.02;74.49;97648.59;10429240;28;20042;-65
2023/01/17 07:06:12;;;;;;;5.97;2.60;;;;;;;3.98;74.46;97645.50;10435936;28;20041;-59
2023/01/17 07:42:50;;;;;;;7.47;2.72;;;;;;;3.83;75.09;97639.56;11028966;23;20072;-68
2023/01/17 07:47:51;;;;;;;7.35;3.20;;;;;;;3.73;75.01;97639.09;10618351;23;20049;-64
2023/01/17 07:52:53;;;;;;;9.77;3.17;;;;;;;3.57;75.72;97640.25;10463391;28;20052;-66
2023/01/17 07:57:54;;;;;;;8.40;2.72;;;;;;;3.47;76.26;97623.88;10465420;28;20569;-65
2023/01/17 08:03:00;;;;;;;8.88;3.00;;;;;;;3.37;76.60;97610.97;10450452;28;20624;-65
2023/01/17 08:08:01;;;;;;;9.52;4.20;;;;;;;3.46;76.49;97606.34;10519856;22;20105;-64
2023/01/17 08:13:02;;;;;;;7.95;3.50;;;;;;;3.61;76.60;97622.09;10439851;28;20045;-66
2023/01/17 08:18:04;;;;;;;8.20;3.35;;;;;;;3.71;76.04;97623.38;10448103;28;20045;-65
2023/01/17 08:23:05;;;;;;;6.28;3.00;;;;;;;3.77;76.25;97606.63;10440454;28;20053;-63
2023/01/17 08:28:06;;;;;;;10.27;3.40;;;;;;;3.90;76.24;97603.19;10435542;28;20073;-67
2023/01/17 08:33:08;;;;;;;7.38;3.67;;;;;;;4.03;76.00;97599.75;11319867;22;20057;-64
2023/01/17 08:43:26;;;;;;;6.65;2.97;;;;;;;4.20;75.94;97588.72;10847976;22;20048;-62
2023/01/17 08:48:27;;;;;;;9.65;3.00;;;;;;;4.29;75.81;97580.31;10726412;22;20108;-64
2023/01/17 08:53:29;;;;;;;7.22;2.20;;;;;;;4.24;76.11;97577.44;10357579;28;20145;-66
2023/01/17 08:58:31;;;;;;;7.15;3.17;;;;;;;4.25;76.22;97565.81;10351270;28;20100;-66
2023/01/17 09:03:34;;;;;;;3.22;1.80;;;;;;;4.37;76.17;97572.13;10351855;28;20472;-65
2023/01/17 09:08:36;;;;;;;6.38;2.97;;;;;;;4.57;75.83;97574.78;10345119;28;20057;-66
2023/01/17 09:13:38;;;;;;;7.88;2.60;;;;;;;4.65;75.84;97570.28;10350069;28;20073;-65
2023/01/17 09:18:39;;;;;;;4.97;2.28;;;;;;;4.81;75.24;97582.34;10351929;28;20042;-65
2023/01/17 09:23:41;;;;;;;4.93;2.38;;;;;;;4.83;75.05;97583.75;10351224;28;20193;-65
2023/01/17 09:28:43;;;;;;;9.30;2.88;;;;;;;4.85;75.74;97580.88;10346631;28;20065;-66
2023/01/17 09:33:44;;;;;;;7.47;2.70;;;;;;;4.95;75.37;97587.41;10352931;28;20057;-65
2023/01/17 09:38:46;;;;;;;8.52;2.15;;;;;;;5.01;75.90;97588.41;10353256;28;20089;-65
2023/01/17 09:44:25;;;;;;;7.53;3.08;;;;;;;5.07;75.74;97606.22;10342775;28;20088;-65
2023/01/17 09:49:37;;;;;;;4.47;2.20;;;;;;;5.08;75.25;97604.41;10347892;28;20452;-68
2023/01/17 09:54:41;;;;;;;3.75;1.52;;;;;;;5.24;75.31;97601.25;10354941;28;20050;-68
2023/01/17 09:59:56;;;;;;;3.30;1.80;;;;;;;5.37;74.44;97605.72;10317194;28;20085;-68
2023/01/17 10:31:32;;;;;;;4.05;1.13;;;;;;;5.97;73.05;97588.66;10427973;28;20060;-65
2023/01/17 10:36:38;;;;;;;1.23;0.65;;;;;;;5.93;73.07;97585.56;10407227;28;20045;-65
2023/01/17 10:41:49;;;;;;;5.22;1.00;;;;;;;6.01;72.91;97585.34;10417845;28;20045;-66
2023/01/17 10:47:00;;;;;;;0.90;0.52;;;;;;;6.09;72.61;97581.59;10405911;28;20046;-68
2023/01/17 10:52:16;;;;;;;2.35;0.60;;;;;;;6.22;72.13;97578.84;10395817;28;20034;-65
2023/01/17 10:57:24;;;;;;;0.90;0.47;;;;;;;6.20;71.74;97582.75;10351793;28;20050;-67
2023/01/17 11:02:35;;;;;;;;;;;;;;;6.37;72.94;97589.19;10346318;28;20156;-68
2023/01/17 11:12:52;;;;;;;1.17;0.43;;;;;;;6.54;70.98;97595.63;11928048;22;20060;-69
2023/01/17 11:18:06;;;;;;;0.60;0.35;;;;;;;6.61;70.56;97590.22;10787901;22;20049;-64
2023/01/17 11:28:42;;;;;;;2.33;0.65;;;;;;;6.96;69.95;97597.69;11281108;22;20071;-63
2023/01/17 11:33:46;;;;;;;4.28;0.95;;;;;;;7.06;69.28;97581.97;10442168;28;20029;-64
2023/01/17 11:49:29;;;;;;;3.25;1.20;;;;;;;7.39;70.40;97558.63;10577797;27;20468;-70
2023/01/17 11:54:38;;;;;;;3.53;1.20;;;;;;;7.15;69.66;97564.63;10514009;28;20102;-69
2023/01/17 11:59:42;;;;;;;2.22;1.00;;;;;;;7.08;69.63;97550.53;10526200;28;20040;-69
2023/01/17 12:05:14;;;;;;;4.05;1.20;;;;;;;7.00;69.26;97542.81;10509090;28;20052;-69
2023/01/17 12:10:26;;;;;;;3.47;1.20;;;;;;;6.89;68.77;97543.53;10503641;28;20076;-70
2023/01/17 12:15:55;;;;;;;2.30;1.10;;;;;;;6.84;69.38;97532.72;10561784;28;20040;-71
2023/01/17 14:19:37;;;;;;;2.58;1.13;;;;;;;7.95;67.15;97493.22;10697539;23;20054;-89
2023/01/17 14:24:58;;;;;;;5.60;1.30;;;;;;;7.95;66.83;97483.34;10567080;23;20043;-65
2023/01/17 14:30:18;;;;;;;2.22;1.05;;;;;;;7.92;65.79;97475.00;10358295;23;20040;31
2023/01/17 14:35:22;;;;;;;4.30;1.00;;;;;;;7.84;66.69;97469.94;10155160;29;20051;-67
2023/01/17 14:40:26;;;;;;;1.88;1.05;;;;;;;7.76;66.25;97465.78;10207834;23;20075;-88
2023/01/17 14:45:31;;;;;;;2.50;1.10;;;;;;;7.69;66.60;97467.72;10181656;29;20079;-88
2023/01/17 14:50:38;;;;;;;1.40;0.82;;;;;;;7.66;66.25;97463.66;10206891;29;20048;-89
2023/01/17 14:55:53;;;;;;;2.97;1.10;;;;;;;7.55;66.79;97456.41;10178848;29;20365;-89
2023/01/17 15:01:05;;;;;;;3.25;0.70;;;;;;;7.52;66.55;97454.19;10188559;29;20055;-88
2023/01/17 15:06:14;;;;;;;1.67;0.80;;;;;;;7.50;67.12;97458.94;10202388;29;20032;-88
2023/01/17 15:11:24;;;;;;;4.82;1.50;;;;;;;7.43;66.28;97452.91;10189617;29;20059;-89
2023/01/17 15:16:32;;;;;;;2.90;1.05;;;;;;;7.32;66.72;97457.94;10553030;23;20052;-89
2023/01/17 15:21:41;;;;;;;5.35;1.30;;;;;;;7.23;66.93;97459.31;10181210;29;20052;-89
2023/01/17 15:26:43;;;;;;;3.15;0.90;;;;;;;7.13;67.36;97465.19;10198907;29;20052;-89
2023/01/17 15:31:48;;;;;;;3.70;1.35;;;;;;;6.99;67.29;97468.25;10204111;29;20044;-88
2023/01/17 15:36:51;;;;;;;2.15;1.20;;;;;;;6.90;67.32;97465.09;10199739;29;20045;-88
2023/01/17 15:41:56;;;;;;;3.30;0.80;;;;;;;6.78;67.44;97469.53;10178878;29;20048;-89
2023/01/17 15:47:00;;;;;;;3.65;0.90;;;;;;;6.61;67.28;97483.47;10201620;28;20055;-89
2023/01/17 15:52:05;;;;;;;6.20;1.80;;;;;;;6.45;67.77;97476.84;10253703;23;21042;-89
2023/01/17 15:57:23;;;;;;;4.38;1.63;;;;;;;6.28;68.30;97468.63;10252474;28;20044;-88
2023/01/17 16:02:41;;;;;;;3.03;1.30;;;;;;;6.08;68.04;97478.63;10273590;28;20050;-90
2023/01/17 16:07:44;;;;;;;5.53;2.72;;;;;;;5.92;69.02;97479.97;10241403;28;20110;-89
2023/01/17 16:12:47;;;;;;;9.27;2.55;;;;;;;5.83;68.60;97481.28;10237622;28;20044;-89
2023/01/17 16:17:52;;;;;;;9.20;3.50;;;;;;;5.69;68.75;97491.22;10260873;28;20049;-89
2023/01/17 16:22:54;;;;;;;5.10;2.55;;;;;;;5.57;68.90;97488.44;10252296;28;20047;-88
2023/01/17 16:27:58;;;;;;;8.32;3.17;;;;;;;5.43;69.51;97498.34;10299594;23;20059;-66
2023/01/17 16:32:59;;;;;;;9.93;4.57;;;;;;;5.24;69.35;97504.59;10258306;29;20039;-66
2023/01/17 16:38:04;;;;;;;6.22;3.17;;;;;;;5.04;70.12;97502.81;10257448;29;20023;-64
2023/01/17 16:43:06;;;;;;;8.88;4.72;;;;;;;4.93;70.20;97508.78;10246054;29;20103;-65
2023/01/17 16:48:08;;;;;;;4.65;2.60;;;;;;;4.79;69.88;97510.69;10256292;29;20043;-66
2023/01/17 16:53:09;;;;;;;7.00;3.20;;;;;;;4.59;70.38;97508.06;10251041;28;20051;-64
2023/01/17 16:58:10;;;;;;;6.45;3.67;;;;;;;4.54;70.36;97514.03;10253862;29;20039;-64
2023/01/17 17:03:17;;;;;;;29.90;9.73;;;;;;;4.37;70.39;97508.31;10223465;29;20035;-66
2023/01/17 17:08:18;;;;;;;35.53;13.57;;;;;;;4.29;70.66;97505.88;10255014;28;20051;-66
2023/01/17 17:13:19;;;;;;;49.45;18.05;;;;;;;4.16;70.80;97514.66;10258037;28;20040;-64
2023/01/17 17:18:21;;;;;;;17.63;7.75;;;;;;;3.93;71.36;97516.91;10252586;29;20044;-66
2023/01/17 17:23:22;;;;;;;12.60;6.25;;;;;;;3.91;71.33;97524.28;10255730;29;20034;-65
2023/01/17 17:28:24;;;;;;;12.15;6.57;;;;;;;3.91;71.32;97514.47;10254538;28;20051;-66
2023/01/17 17:33:25;;;;;;;7.70;4.32;;;;;;;3.75;72.04;97517.50;10224480;29;20040;-64
2023/01/17 17:38:26;;;;;;;11.80;4.45;;;;;;;3.64;71.77;97521.59;10254539;29;20632;-65
2023/01/17 17:43:28;;;;;;;9.35;4.43;;;;;;;3.63;71.69;97525.25;10257182;29;20027;-66
2023/01/17 17:48:29;;;;;;;9.50;4.57;;;;;;;3.56;72.09;97533.22;10257486;29;20031;-67
2023/01/17 17:53:31;;;;;;;11.90;3.97;;;;;;;3.50;72.12;97528.72;10251029;28;20059;-64
2023/01/17 17:58:34;;;;;;;8.02;3.78;;;;;;;3.50;72.23;97544.66;10242950;29;20040;-63
2023/01/17 18:03:35;;;;;;;11.27;5.20;;;;;;;3.54;71.79;97547.72;10242898;29;20043;-63
2023/01/17 18:08:38;;;;;;;15.10;7.25;;;;;;;3.55;71.84;97538.72;10254197;28;20035;-65
2023/01/17 18:13:41;;;;;;;9.48;5.05;;;;;;;3.55;71.78;97539.56;10226240;29;20050;-62
2023/01/17 18:18:46;;;;;;;7.22;4.25;;;;;;;3.55;71.84;97544.03;10231204;29;20076;-62
2023/01/17 18:23:50;;;;;;;11.27;4.97;;;;;;;3.55;71.77;97549.34;10216501;29;20059;-62
2023/01/17 18:28:53;;;;;;;6.72;3.63;;;;;;;3.47;71.68;97554.84;10227408;29;20048;-65
2023/01/17 18:34:01;;;;;;;8.10;4.38;;;;;;;3.43;71.87;97562.38;10245979;29;20043;-66
2023/01/17 18:39:09;;;;;;;7.25;3.97;;;;;;;3.41;71.82;97563.63;10242646;29;20082;-64
2023/01/17 18:44:11;;;;;;;;;;;;;;;3.41;72.80;97555.66;10239746;29;20099;-64
2023/01/17 18:49:15;;;;;;;6.35;3.90;;;;;;;3.42;72.00;97567.91;10227817;29;19926;-62
2023/01/17 18:54:18;;;;;;;10.52;5.20;;;;;;;3.36;72.43;97562.38;10226455;29;20048;-62
2023/01/17 18:59:22;;;;;;;17.88;8.43;;;;;;;3.27;72.70;97566.22;10215832;29;20063;-61
2023/01/17 19:04:23;;;;;;;19.25;8.77;;;;;;;3.22;72.57;97573.13;10232871;29;20043;-66
2023/01/17 19:09:25;;;;;;;20.42;9.95;;;;;;;3.18;72.89;97575.38;10237102;29;20057;-61
2023/01/17 19:14:26;;;;;;;19.55;8.75;;;;;;;3.24;72.50;97585.22;10230754;29;20084;-64
2023/01/17 19:19:27;;;;;;;13.82;7.88;;;;;;;3.26;72.28;97596.44;10238361;29;20055;-64
2023/01/17 19:24:29;;;;;;;10.30;5.47;;;;;;;3.27;72.65;97594.59;10240931;29;20051;-66
2023/01/17 19:29:31;;;;;;;12.00;5.57;;;;;;;3.21;72.86;97598.06;10242614;29;20067;-67
2023/01/17 19:34:33;;;;;;;10.65;5.35;;;;;;;3.27;72.68;97611.34;10235220;29;20061;-66
2023/01/17 19:39:34;;;;;;;8.88;5.20;;;;;;;3.25;72.26;97623.19;10237697;29;20051;-67
2023/01/17 19:44:36;;;;;;;11.93;4.10;;;;;;;3.21;72.68;97625.41;10242720;29;20054;-65
2023/01/17 19:49:43;;;;;;;14.07;6.25;;;;;;;3.34;72.50;97622.00;10225588;29;20040;-66
2023/01/17 19:54:44;;;;;;;10.10;4.53;;;;;;;3.43;72.03;97625.31;10229371;29;20064;-66
2023/01/17 19:59:45;;;;;;;13.40;6.13;;;;;;;3.47;72.12;97635.31;10232156;29;20024;-67
2023/01/17 20:04:47;;;;;;;10.63;5.97;;;;;;;3.52;72.06;97634.75;10254865;28;20051;-66
2023/01/17 20:09:48;;;;;;;10.52;5.80;;;;;;;3.54;71.80;97640.69;10256705;29;20035;-68
2023/01/17 20:14:50;;;;;;;11.63;5.22;;;;;;;3.57;72.13;97626.97;10250852;29;20051;-65
2023/01/17 20:19:52;;;;;;;9.40;5.70;;;;;;;3.53;72.10;97637.19;10253444;29;20043;-66
2023/01/17 20:24:53;;;;;;;7.68;4.38;;;;;;;3.55;72.19;97640.50;10240182;29;20064;-67
2023/01/17 20:29:54;;;;;;;10.05;5.35;;;;;;;3.62;72.01;97642.34;10246675;29;20544;-63
2023/01/17 20:34:56;;;;;;;7.60;4.40;;;;;;;3.68;71.82;97633.59;10239701;29;20120;-66
2023/01/17 20:39:57;;;;;;;7.47;3.83;;;;;;;3.70;72.29;97637.66;10238613;29;20765;-65
2023/01/17 20:44:58;;;;;;;12.63;4.15;;;;;;;3.63;72.31;97643.97;10257216;29;20031;-67
2023/01/17 20:50:02;;;;;;;5.53;3.50;;;;;;;3.69;72.25;97651.13;10250895;28;20047;-65
2023/01/17 20:55:03;;;;;;;5.50;3.40;;;;;;;3.80;71.95;97655.06;10253483;28;20028;-66
2023/01/17 21:00:06;;;;;;;5.90;3.70;;;;;;;3.85;72.06;97645.50;10256109;28;20039;-68
2023/01/17 21:05:09;;;;;;;7.75;2.60;;;;;;;3.86;72.24;97651.63;10256302;29;20083;-66
2023/01/17 21:10:10;;;;;;;5.20;2.67;;;;;;;3.95;72.08;97647.78;10252812;29;20044;-65
2023/01/17 21:15:16;;;;;;;7.13;4.60;;;;;;;3.91;72.13;97641.19;10250967;29;20103;-66
2023/01/17 21:20:17;;;;;;;4.22;2.20;;;;;;;3.97;72.25;97654.50;10245042;29;20091;-65
2023/01/17 21:25:19;;;;;;;5.03;2.60;;;;;;;3.98;72.04;97650.00;10246921;29;20064;-63
2023/01/17 21:30:20;;;;;;;6.53;3.20;;;;;;;4.07;71.92;97654.13;10250453;29;20043;-65
2023/01/17 21:35:21;;;;;;;5.18;2.45;;;;;;;4.20;71.84;97655.16;10247121;29;20544;-65
2023/01/17 21:40:23;;;;;;;5.57;2.40;;;;;;;4.24;71.72;97661.72;10246311;29;20050;-65
2023/01/17 21:45:25;;;;;;;7.97;3.40;;;;;;;4.31;71.43;97650.06;10245348;29;20047;-63
2023/01/17 21:50:26;;;;;;;4.13;2.40;;;;;;;4.33;71.27;97656.00;10260266;28;20087;-65
2023/01/17 22:01:06;;;;;;;5.15;2.78;;;;;;;4.23;71.76;97660.09;10255337;28;20035;-66
2023/01/17 22:06:09;;;;;;;5.90;2.60;;;;;;;4.20;71.51;97657.84;10238750;29;20107;-65
2023/01/17 22:11:13;;;;;;;8.10;2.65;;;;;;;4.11;71.95;97655.38;10257408;28;20086;-64
2023/01/17 22:16:22;;;;;;;6.13;3.65;;;;;;;4.08;71.57;97670.88;10248508;28;20067;-62
2023/01/17 22:21:27;;;;;;;9.68;4.32;;;;;;;4.04;71.73;97662.50;10260005;28;20031;-65
2023/01/17 22:26:30;;;;;;;8.85;4.25;;;;;;;4.08;71.88;97669.03;10255513;28;20051;-65
2023/01/17 22:31:32;;;;;;;6.32;3.22;;;;;;;4.07;71.69;97659.44;10251391;28;20071;-65
2023/01/17 22:36:34;;;;;;;6.20;2.53;;;;;;;4.00;71.79;97668.41;10255632;28;20047;-65
2023/01/17 22:41:36;;;;;;;6.15;1.90;;;;;;;3.93;72.17;97660.41;10257534;28;20023;-64
2023/01/17 22:46:39;;;;;;;3.45;1.65;;;;;;;3.85;72.14;97666.75;10255011;28;20048;-64
2023/01/17 22:51:40;;;;;;;4.18;2.20;;;;;;;3.78;71.97;97661.41;10252904;29;20038;-66
2023/01/17 22:56:42;;;;;;;4.32;2.45;;;;;;;3.81;72.05;97660.19;10255226;28;20028;-65
2023/01/17 23:01:43;;;;;;;3.45;2.25;;;;;;;3.73;72.26;97663.84;10236170;29;20047;-65
2023/01/17 23:06:44;;;;;;;3.33;2.40;;;;;;;3.70;72.04;97666.88;10256964;28;20027;-65
2023/01/17 23:11:50;;;;;;;2.95;1.77;;;;;;;3.71;71.93;97651.75;10251329;28;20088;-64
2023/01/17 23:22:25;;;;;;;3.97;2.13;;;;;;;3.75;71.68;97653.84;10257920;28;20062;-65
2023/01/17 23:32:58;;;;;;;4.97;2.70;;;;;;;3.68;71.54;97649.53;10256058;28;20024;-64
2023/01/17 23:43:22;;;;;;;8.20;3.80;;;;;;;3.68;71.32;97644.19;10258103;28;20112;-65
2023/01/17 23:48:27;;;;;;;5.70;2.72;;;;;;;3.56;71.82;97636.00;10252029;29;20044;-65
2023/01/17 23:53:28;;;;;;;3.15;1.60;;;;;;;3.40;72.37;97634.50;10255127;29;20058;-63
2023/01/17 23:58:31;;;;;;;4.13;1.75;;;;;;;3.40;72.06;97631.00;10256095;28;20044;-64
